createdAt,value
2022-10-20T00:00:58.925Z,8.97
2022-10-20T00:03:28.600Z,8.70
2022-10-20T00:06:06.785Z,8.40
2022-10-20T00:08:36.008Z,8.77
2022-10-20T00:11:04.546Z,8.23
2022-10-20T00:13:32.615Z,8.30
2022-10-20T00:16:01.618Z,8.07
2022-10-20T00:18:29.842Z,7.50
2022-10-20T00:20:57.782Z,8.30
2022-10-20T00:23:26.238Z,7.73
2022-10-20T00:26:03.451Z,7.67
2022-10-20T00:28:31.534Z,7.57
2022-10-20T00:30:59.508Z,7.70
2022-10-20T00:33:28.016Z,7.47
2022-10-20T00:35:56.250Z,8.20
2022-10-20T00:38:24.168Z,7.90
2022-10-20T00:40:52.804Z,7.70
2022-10-20T00:43:22.530Z,7.97
2022-10-20T00:45:54.581Z,7.50
2022-10-20T00:48:26.787Z,7.53
2022-10-20T00:50:57.293Z,8.27
2022-10-20T00:53:29.576Z,7.83
2022-10-20T00:56:00.110Z,8.03
2022-10-20T00:58:30.148Z,8.10
2022-10-20T01:01:00.631Z,7.60
2022-10-20T01:03:37.470Z,8.10
2022-10-20T01:06:06.180Z,7.37
2022-10-20T01:08:34.248Z,6.97
2022-10-20T01:11:14.095Z,6.97
2022-10-20T01:13:58.152Z,7.20
2022-10-20T01:16:35.515Z,6.60
2022-10-20T01:19:18.082Z,7.53
2022-10-20T01:22:06.321Z,6.77
2022-10-20T01:24:53.225Z,7.10
2022-10-20T01:27:44.894Z,6.40
2022-10-20T01:30:17.765Z,7.07
2022-10-20T01:32:55.162Z,6.77
2022-10-20T01:35:32.090Z,7.13
2022-10-20T01:38:10.827Z,7.17
2022-10-20T01:40:44.679Z,7.57
2022-10-20T01:43:17.876Z,7.37
2022-10-20T01:45:48.339Z,7.97
2022-10-20T01:48:21.809Z,7.60
2022-10-20T01:50:51.087Z,7.77
2022-10-20T01:53:19.394Z,7.53
2022-10-20T01:55:47.412Z,8.30
2022-10-20T01:58:44.225Z,7.90
2022-10-20T02:01:22.264Z,7.93
2022-10-20T02:03:57.594Z,7.33
2022-10-20T02:06:34.831Z,6.97
2022-10-20T02:09:06.974Z,7.10
2022-10-20T02:11:42.940Z,7.17
2022-10-20T02:14:15.991Z,7.53
2022-10-20T02:16:50.105Z,6.70
2022-10-20T02:19:22.134Z,7.23
2022-10-20T02:21:52.600Z,7.30
2022-10-20T02:24:24.812Z,7.07
2022-10-20T02:26:56.059Z,6.97
2022-10-20T02:29:30.650Z,7.23
2022-10-20T02:31:59.488Z,6.33
2022-10-20T02:34:27.988Z,6.23
2022-10-20T02:36:59.070Z,6.20
2022-10-20T02:39:27.961Z,6.30
2022-10-20T02:41:55.916Z,6.77
2022-10-20T02:44:25.478Z,5.87
2022-10-20T02:46:53.587Z,6.10
2022-10-20T02:49:21.726Z,6.00
2022-10-20T02:51:49.998Z,6.80
2022-10-20T02:54:18.417Z,5.93
2022-10-20T02:56:46.552Z,6.47
2022-10-20T02:59:16.910Z,6.13
2022-10-20T03:01:46.781Z,6.53
2022-10-20T03:04:15.529Z,6.87
2022-10-20T03:06:44.692Z,6.97
2022-10-20T03:09:12.879Z,7.43
2022-10-20T03:11:41.017Z,6.90
2022-10-20T03:14:09.264Z,7.13
2022-10-20T03:16:37.680Z,7.10
2022-10-20T03:19:11.372Z,7.23
2022-10-20T03:21:39.972Z,7.20
2022-10-20T03:24:08.236Z,7.03
2022-10-20T03:26:36.970Z,6.63
2022-10-20T03:29:05.476Z,6.60
2022-10-20T03:31:33.579Z,6.80
2022-10-20T03:34:01.653Z,7.17
2022-10-20T03:36:31.199Z,6.93
2022-10-20T03:38:59.087Z,7.53
2022-10-20T03:41:27.335Z,7.70
2022-10-20T03:43:55.325Z,7.27
2022-10-20T03:46:23.349Z,7.37
2022-10-20T03:48:51.598Z,7.70
2022-10-20T03:51:19.842Z,8.10
2022-10-20T03:53:49.437Z,7.90
2022-10-20T03:56:19.991Z,8.07
2022-10-20T03:58:48.646Z,7.67
2022-10-20T04:01:19.409Z,7.43
2022-10-20T04:03:47.359Z,7.80
2022-10-20T04:06:16.483Z,7.93
2022-10-20T04:08:46.523Z,8.10
2022-10-20T04:11:16.282Z,8.33
2022-10-20T04:13:44.361Z,8.47
2022-10-20T04:16:12.549Z,7.40
2022-10-20T04:18:40.738Z,7.80
2022-10-20T04:21:08.887Z,7.57
2022-10-20T04:23:37.094Z,7.43
2022-10-20T04:26:10.084Z,7.77
2022-10-20T04:28:39.888Z,7.33
2022-10-20T04:31:08.930Z,7.13
2022-10-20T04:33:37.334Z,7.83
2022-10-20T04:36:07.622Z,8.03
2022-10-20T04:38:36.443Z,7.70
2022-10-20T04:41:05.854Z,8.67
2022-10-20T04:43:34.760Z,8.23
2022-10-20T04:46:08.390Z,8.10
2022-10-20T04:48:37.269Z,7.83
2022-10-20T04:51:07.944Z,8.00
2022-10-20T04:53:36.055Z,7.07
2022-10-20T04:56:05.222Z,7.53
2022-10-20T04:58:33.251Z,7.50
2022-10-20T05:01:08.322Z,7.57
2022-10-20T05:03:37.360Z,7.47
2022-10-20T05:06:13.832Z,7.43
2022-10-20T05:08:42.711Z,7.20
2022-10-20T05:11:19.865Z,7.37
2022-10-20T05:13:48.320Z,7.47
2022-10-20T05:16:18.394Z,7.37
2022-10-20T05:18:47.302Z,7.07
2022-10-20T05:21:20.796Z,7.80
2022-10-20T05:23:49.270Z,7.50
2022-10-20T05:26:18.986Z,7.47
2022-10-20T05:28:48.726Z,7.33
2022-10-20T05:31:21.232Z,7.73
2022-10-20T05:33:51.066Z,8.40
2022-10-20T05:36:23.629Z,8.37
2022-10-20T05:38:53.786Z,9.03
2022-10-20T05:41:24.417Z,8.63
2022-10-20T05:43:53.873Z,8.83
2022-10-20T05:46:23.087Z,8.60
2022-10-20T05:48:54.269Z,8.97
2022-10-20T05:51:26.050Z,8.70
2022-10-20T05:53:57.063Z,8.93
2022-10-20T05:56:27.093Z,9.70
2022-10-20T05:58:55.560Z,8.90
2022-10-20T06:01:27.307Z,9.07
2022-10-20T06:03:57.324Z,9.00
2022-10-20T06:06:27.664Z,8.67
2022-10-20T06:08:56.600Z,8.83
2022-10-20T06:11:25.566Z,8.97
2022-10-20T06:13:53.695Z,8.80
2022-10-20T06:16:25.244Z,9.67
2022-10-20T06:18:54.159Z,10.10
2022-10-20T06:21:24.303Z,8.83
2022-10-20T06:23:52.473Z,9.43
2022-10-20T06:26:22.262Z,9.37
2022-10-20T06:29:01.175Z,10.30
2022-10-20T06:31:34.677Z,9.20
2022-10-20T06:34:04.933Z,9.23
2022-10-20T06:36:35.936Z,9.80
2022-10-20T06:39:05.584Z,9.27
2022-10-20T06:41:34.273Z,9.63
2022-10-20T06:44:02.297Z,9.50
2022-10-20T06:46:32.272Z,8.63
2022-10-20T06:49:03.836Z,8.30
2022-10-20T06:51:32.010Z,9.30
2022-10-20T06:54:00.957Z,10.10
2022-10-20T06:56:30.850Z,10.30
2022-10-20T06:59:00.196Z,10.17
2022-10-20T07:01:29.820Z,9.63
2022-10-20T07:03:59.525Z,9.80
2022-10-20T07:06:31.485Z,11.33
2022-10-20T07:09:00.163Z,11.13
2022-10-20T07:11:30.165Z,10.17
2022-10-20T07:14:00.183Z,10.57
2022-10-20T07:16:29.688Z,9.53
2022-10-20T07:18:57.849Z,10.67
2022-10-20T07:21:32.512Z,9.23
2022-10-20T07:24:05.777Z,8.80
2022-10-20T07:26:36.283Z,8.93
2022-10-20T07:29:05.519Z,8.90
2022-10-20T07:31:35.704Z,8.67
2022-10-20T07:34:23.982Z,9.23
2022-10-20T07:36:54.437Z,8.43
2022-10-20T07:39:22.485Z,8.70
2022-10-20T07:41:50.229Z,8.70
2022-10-20T07:44:18.220Z,8.50
2022-10-20T07:46:46.028Z,8.67
2022-10-20T07:52:04.206Z,7.77
2022-10-20T07:54:32.589Z,9.33
2022-10-20T07:57:00.596Z,10.07
2022-10-20T07:59:29.563Z,9.80
2022-10-20T08:01:59.855Z,9.40
2022-10-20T08:04:28.984Z,9.10
2022-10-20T08:06:57.038Z,8.93
2022-10-20T08:09:26.959Z,8.70
2022-10-20T08:11:56.052Z,9.40
2022-10-20T08:14:27.132Z,8.77
2022-10-20T08:16:59.466Z,8.87
2022-10-20T08:19:34.455Z,9.43
2022-10-20T08:22:03.801Z,8.67
2022-10-20T08:24:33.007Z,9.27
2022-10-20T08:27:02.399Z,9.70
2022-10-20T08:29:32.040Z,9.53
2022-10-20T08:31:59.965Z,9.77
2022-10-20T08:34:27.857Z,9.80
2022-10-20T08:36:55.692Z,10.07
2022-10-20T08:39:23.756Z,9.37
2022-10-20T08:42:08.149Z,10.07
2022-10-20T08:44:38.787Z,10.10
2022-10-20T08:47:20.701Z,10.03
2022-10-20T08:49:49.497Z,10.07
2022-10-20T08:52:19.501Z,10.63
2022-10-20T08:54:58.758Z,10.60
2022-10-20T08:57:33.432Z,10.90
2022-10-20T09:00:16.097Z,11.73
2022-10-20T09:02:44.164Z,11.20
2022-10-20T09:05:18.220Z,11.03
2022-10-20T09:07:50.372Z,11.33
2022-10-20T09:10:28.280Z,11.53
2022-10-20T09:12:58.593Z,10.67
2022-10-20T09:15:28.200Z,11.50
2022-10-20T09:18:00.951Z,11.37
2022-10-20T09:20:36.514Z,10.83
2022-10-20T09:23:16.670Z,10.83
2022-10-20T09:25:54.359Z,10.40
2022-10-20T09:28:26.419Z,10.60
2022-10-20T09:30:55.471Z,10.40
2022-10-20T09:33:29.990Z,10.33
2022-10-20T09:36:04.711Z,10.17
2022-10-20T09:38:36.525Z,9.90
2022-10-20T09:41:12.663Z,10.10
2022-10-20T09:43:53.146Z,10.00
2022-10-20T09:46:28.624Z,10.97
2022-10-20T09:48:57.548Z,10.63
2022-10-20T09:51:28.039Z,10.43
2022-10-20T09:54:01.317Z,10.50
2022-10-20T09:56:32.090Z,10.50
2022-10-20T09:59:05.278Z,10.80
2022-10-20T10:01:42.875Z,10.87
2022-10-20T10:04:37.110Z,10.20
2022-10-20T10:07:07.114Z,10.20
2022-10-20T10:09:36.598Z,10.83
2022-10-20T10:12:06.825Z,10.50
2022-10-20T10:14:37.966Z,9.93
2022-10-20T10:17:08.420Z,10.90
2022-10-20T10:19:40.713Z,10.50
2022-10-20T10:22:14.871Z,10.67
2022-10-20T10:24:47.206Z,10.73
2022-10-20T10:27:24.651Z,11.10
2022-10-20T10:29:54.872Z,11.40
2022-10-20T10:32:29.225Z,10.83
2022-10-20T10:35:21.117Z,10.83
2022-10-20T10:38:05.185Z,11.63
2022-10-20T10:40:49.574Z,10.83
2022-10-20T10:43:33.244Z,10.87
2022-10-20T10:46:07.297Z,10.80
2022-10-20T10:48:54.840Z,11.20
2022-10-20T10:51:35.095Z,11.37
2022-10-20T10:54:16.527Z,11.57
2022-10-20T10:56:48.851Z,11.67
2022-10-20T10:59:22.820Z,10.27
2022-10-20T11:02:29.054Z,10.93
2022-10-20T11:05:25.849Z,11.50
2022-10-20T11:08:04.225Z,12.00
2022-10-20T11:10:40.634Z,11.80
2022-10-20T11:13:24.458Z,11.37
2022-10-20T11:16:13.765Z,11.10
2022-10-20T11:19:10.265Z,11.20
2022-10-20T11:21:50.316Z,11.33
2022-10-20T11:24:40.949Z,10.57
2022-10-20T11:27:12.877Z,11.03
2022-10-20T11:29:48.524Z,11.40
2022-10-20T11:32:27.670Z,11.30
2022-10-20T11:35:06.726Z,10.53
2022-10-20T11:37:43.195Z,11.00
2022-10-20T11:40:23.350Z,10.10
2022-10-20T11:42:58.675Z,10.53
2022-10-20T11:45:35.448Z,10.10
2022-10-20T11:48:14.112Z,10.40
2022-10-20T11:50:49.588Z,10.47
2022-10-20T11:53:34.932Z,10.83
2022-10-20T11:56:36.653Z,10.00
2022-10-20T11:59:39.956Z,9.90
2022-10-20T12:02:32.648Z,10.10
2022-10-20T12:05:19.526Z,10.30
2022-10-20T12:08:29.345Z,10.70
2022-10-20T12:11:05.373Z,9.83
2022-10-20T12:13:47.367Z,10.40
2022-10-20T12:16:51.938Z,10.27
2022-10-20T12:19:26.622Z,9.63
2022-10-20T12:21:56.655Z,10.10
2022-10-20T12:24:36.996Z,9.87
2022-10-20T12:27:28.684Z,10.63
2022-10-20T12:30:06.992Z,9.90
2022-10-20T12:32:54.407Z,10.43
2022-10-20T12:36:05.110Z,10.63
2022-10-20T12:38:34.412Z,10.97
2022-10-20T12:41:03.376Z,11.27
2022-10-20T12:43:46.207Z,11.27
2022-10-20T12:46:21.300Z,10.27
2022-10-20T12:48:57.366Z,11.60
2022-10-20T12:51:34.024Z,10.47
2022-10-20T12:54:06.584Z,11.47
2022-10-20T12:56:38.992Z,10.80
2022-10-20T12:59:24.813Z,11.07
2022-10-20T13:02:30.507Z,11.70
2022-10-20T13:05:01.493Z,11.30
2022-10-20T13:08:01.791Z,12.03
2022-10-20T13:10:31.076Z,11.57
2022-10-20T13:16:17.254Z,11.37
2022-10-20T13:18:49.804Z,11.30
2022-10-20T13:21:27.158Z,12.37
2022-10-20T13:24:02.466Z,11.40
2022-10-20T13:26:33.327Z,12.33
2022-10-20T13:29:03.213Z,11.13
2022-10-20T13:31:36.634Z,11.93
2022-10-20T13:34:12.474Z,11.87
2022-10-20T13:37:00.665Z,11.83
2022-10-20T13:39:37.173Z,11.60
2022-10-20T13:42:17.059Z,11.50
2022-10-20T13:44:57.352Z,12.27
2022-10-20T13:47:48.115Z,12.10
2022-10-20T13:50:19.751Z,12.77
2022-10-20T13:52:50.878Z,12.83
2022-10-20T13:55:22.676Z,13.03
2022-10-20T13:57:56.555Z,13.63
2022-10-20T14:00:27.818Z,12.97
2022-10-20T14:03:00.914Z,13.93
2022-10-20T14:05:31.514Z,12.80
2022-10-20T14:08:04.576Z,13.57
2022-10-20T14:10:49.995Z,12.60
2022-10-20T14:13:22.253Z,13.17
2022-10-20T14:15:53.319Z,13.20
2022-10-20T14:18:25.767Z,12.93
2022-10-20T14:21:02.506Z,12.37
2022-10-20T14:23:35.195Z,13.17
2022-10-20T14:26:03.961Z,13.53
2022-10-20T14:28:35.274Z,13.37
2022-10-20T14:31:04.155Z,14.07
2022-10-20T14:33:41.326Z,13.90
2022-10-20T14:36:20.716Z,13.73
2022-10-20T14:38:50.937Z,13.67
2022-10-20T14:41:30.431Z,14.23
2022-10-20T14:44:05.146Z,14.53
2022-10-20T14:46:38.606Z,15.03
2022-10-20T14:49:16.862Z,13.77
2022-10-20T14:51:54.848Z,14.37
2022-10-20T14:54:44.704Z,14.43
2022-10-20T14:57:39.803Z,14.70
2022-10-20T15:00:41.527Z,15.43
2022-10-20T15:03:11.122Z,15.70
2022-10-20T15:05:44.374Z,16.60
2022-10-20T15:08:21.919Z,17.03
2022-10-20T15:10:50.475Z,16.10
2022-10-20T15:13:27.446Z,17.30
2022-10-20T15:16:00.082Z,16.20
2022-10-20T15:18:29.222Z,17.40
2022-10-20T15:20:58.658Z,15.77
2022-10-20T15:23:28.994Z,16.77
2022-10-20T15:26:02.873Z,18.07
2022-10-20T15:28:42.572Z,17.43
2022-10-20T15:31:20.884Z,17.70
2022-10-20T15:33:49.206Z,17.20
2022-10-20T15:36:21.707Z,18.33
2022-10-20T15:38:50.582Z,19.07
2022-10-20T15:41:21.122Z,18.27
2022-10-20T15:43:49.373Z,19.83
2022-10-20T15:46:18.462Z,20.30
2022-10-20T15:48:47.387Z,19.80
2022-10-20T15:51:20.823Z,18.87
2022-10-20T15:53:50.100Z,19.73
2022-10-20T15:56:18.719Z,19.57
2022-10-20T15:58:47.513Z,18.87
2022-10-20T16:01:16.925Z,21.00
2022-10-20T16:03:46.167Z,21.47
2022-10-20T16:06:16.373Z,21.40
2022-10-20T16:08:47.899Z,21.27
2022-10-20T16:11:18.577Z,20.13
2022-10-20T16:13:46.651Z,21.63
2022-10-20T16:16:16.408Z,22.50
2022-10-20T16:18:45.799Z,23.47
2022-10-20T16:21:14.794Z,21.63
2022-10-20T16:23:44.971Z,21.40
2022-10-20T16:26:15.207Z,23.10
2022-10-20T16:28:44.710Z,22.27
2022-10-20T16:31:16.075Z,21.73
2022-10-20T16:33:48.832Z,22.10
2022-10-20T16:36:19.161Z,21.83
2022-10-20T16:38:47.449Z,23.00
2022-10-20T16:41:17.387Z,22.83
2022-10-20T16:43:47.219Z,23.20
2022-10-20T16:46:16.823Z,24.60
2022-10-20T16:48:47.826Z,24.00
2022-10-20T16:51:17.059Z,22.37
2022-10-20T16:53:45.240Z,21.77
2022-10-20T16:56:16.683Z,21.47
2022-10-20T16:58:49.781Z,22.57
2022-10-20T17:01:19.998Z,22.63
2022-10-20T17:03:50.694Z,22.37
2022-10-20T17:06:21.269Z,23.67
2022-10-20T17:08:49.263Z,23.13
2022-10-20T17:11:20.764Z,23.03
2022-10-20T17:13:50.637Z,22.43
2022-10-20T17:16:22.550Z,22.30
2022-10-20T17:18:53.447Z,23.67
2022-10-20T17:21:21.689Z,23.43
2022-10-20T17:23:50.024Z,22.83
2022-10-20T17:26:20.642Z,21.97
2022-10-20T17:28:52.568Z,23.97
2022-10-20T17:31:22.682Z,23.10
2022-10-20T17:33:52.889Z,22.27
2022-10-20T17:36:26.198Z,22.80
2022-10-20T17:38:57.348Z,21.50
2022-10-20T17:41:25.754Z,21.57
2022-10-20T17:43:55.197Z,22.33
2022-10-20T17:46:23.379Z,22.23
2022-10-20T17:48:52.951Z,21.93
2022-10-20T17:51:22.793Z,21.50
2022-10-20T17:53:52.517Z,22.43
2022-10-20T17:56:22.998Z,21.93
2022-10-20T17:58:52.583Z,20.97
2022-10-20T18:01:24.256Z,22.03
2022-10-20T18:03:57.902Z,21.63
2022-10-20T18:06:33.586Z,22.80
2022-10-20T18:09:03.654Z,21.73
2022-10-20T18:11:33.877Z,21.97
2022-10-20T18:14:02.539Z,22.70
2022-10-20T18:16:34.542Z,23.07
2022-10-20T18:19:03.330Z,22.23
2022-10-20T18:21:32.351Z,21.53
2022-10-20T18:24:02.592Z,23.57
2022-10-20T18:26:33.446Z,21.33
2022-10-20T18:29:03.303Z,21.50
2022-10-20T18:31:34.334Z,20.60
2022-10-20T18:34:05.950Z,23.97
2022-10-20T18:36:37.944Z,23.47
2022-10-20T18:39:09.011Z,22.03
2022-10-20T18:41:39.753Z,22.00
2022-10-20T18:44:09.977Z,24.67
2022-10-20T18:46:40.184Z,24.93
2022-10-20T18:49:09.784Z,23.60
2022-10-20T18:51:38.116Z,20.90
2022-10-20T18:54:07.874Z,23.50
2022-10-20T18:56:36.652Z,23.73
2022-10-20T18:59:06.845Z,23.40
2022-10-20T19:01:38.220Z,24.13
2022-10-20T19:04:08.858Z,24.30
2022-10-20T19:06:39.807Z,24.03
2022-10-20T19:09:09.765Z,24.07
2022-10-20T19:11:40.344Z,24.83
2022-10-20T19:14:10.688Z,23.57
2022-10-20T19:16:39.957Z,23.20
2022-10-20T19:19:10.384Z,24.37
2022-10-20T19:21:41.025Z,24.43
2022-10-20T19:24:13.281Z,23.20
2022-10-20T19:26:49.252Z,24.03
2022-10-20T19:29:26.328Z,24.30
2022-10-20T19:31:56.719Z,23.13
2022-10-20T19:34:29.025Z,23.77
2022-10-20T19:36:57.980Z,23.83
2022-10-20T19:39:28.188Z,22.63
2022-10-20T19:42:01.254Z,23.37
2022-10-20T19:44:30.642Z,23.60
2022-10-20T19:46:59.225Z,23.27
2022-10-20T19:49:28.821Z,22.60
2022-10-20T19:51:57.261Z,22.00
2022-10-20T19:54:25.134Z,23.27
2022-10-20T19:56:53.158Z,21.50
2022-10-20T19:59:21.140Z,22.27
2022-10-20T20:01:49.894Z,21.80
2022-10-20T20:04:17.731Z,20.77
2022-10-20T20:06:46.923Z,21.00
2022-10-20T20:09:16.437Z,21.47
2022-10-20T20:11:45.252Z,22.57
2022-10-20T20:14:16.785Z,22.80
2022-10-20T20:16:45.856Z,22.10
2022-10-20T20:19:15.563Z,24.20
2022-10-20T20:21:44.587Z,22.73
2022-10-20T20:24:15.129Z,22.30
2022-10-20T20:26:44.491Z,23.13
2022-10-20T20:29:12.746Z,22.03
2022-10-20T20:31:41.036Z,24.07
2022-10-20T20:34:09.467Z,24.50
2022-10-20T20:36:39.557Z,23.37
2022-10-20T20:39:08.391Z,24.10
2022-10-20T20:41:38.222Z,22.87
2022-10-20T20:44:08.476Z,23.77
2022-10-20T20:46:39.062Z,22.97
2022-10-20T20:49:07.325Z,22.43
2022-10-20T20:51:53.637Z,22.20
2022-10-20T20:54:21.889Z,22.33
2022-10-20T20:56:51.618Z,22.83
2022-10-20T20:59:19.875Z,21.23
2022-10-20T21:01:48.045Z,22.23
2022-10-20T21:04:16.795Z,20.97
2022-10-20T21:07:03.327Z,21.87
2022-10-20T21:09:31.930Z,21.67
2022-10-20T21:12:01.467Z,21.63
2022-10-20T21:14:29.507Z,21.20
2022-10-20T21:16:57.768Z,21.10
2022-10-20T21:19:25.856Z,20.33
2022-10-20T21:21:57.329Z,21.00
2022-10-20T21:24:27.013Z,20.43
2022-10-20T21:26:55.723Z,20.70
2022-10-20T21:29:28.142Z,21.77
2022-10-20T21:31:58.171Z,21.57
2022-10-20T21:34:27.470Z,22.60
2022-10-20T21:36:55.461Z,21.83
2022-10-20T21:39:35.553Z,21.10
2022-10-20T21:42:03.750Z,21.57
2022-10-20T21:44:33.210Z,20.97
2022-10-20T21:47:01.512Z,21.27
2022-10-20T21:49:29.524Z,21.47
2022-10-20T21:51:58.544Z,20.70
2022-10-20T21:54:30.549Z,20.73
2022-10-20T21:56:58.722Z,19.97
2022-10-20T21:59:27.840Z,20.40
2022-10-20T22:01:59.980Z,21.20
2022-10-20T22:04:33.847Z,21.70
2022-10-20T22:07:01.720Z,21.37
2022-10-20T22:09:29.784Z,21.17
2022-10-20T22:11:58.975Z,21.17
2022-10-20T22:14:27.260Z,21.03
2022-10-20T22:16:56.551Z,20.97
2022-10-20T22:19:26.462Z,21.57
2022-10-20T22:21:54.965Z,20.30
2022-10-20T22:24:24.272Z,20.60
2022-10-20T22:26:53.535Z,20.57
2022-10-20T22:29:23.110Z,20.37
2022-10-20T22:31:51.639Z,21.10
2022-10-20T22:34:19.599Z,22.50
2022-10-20T22:36:48.809Z,21.23
2022-10-20T22:39:16.799Z,20.63
2022-10-20T22:41:44.699Z,21.37
2022-10-20T22:44:12.709Z,21.50
2022-10-20T22:46:40.718Z,21.00
2022-10-20T22:49:14.823Z,20.67
2022-10-20T22:51:43.131Z,19.70
2022-10-20T22:54:12.859Z,20.23
2022-10-20T22:56:43.542Z,21.90
2022-10-20T22:59:14.336Z,20.70
2022-10-20T23:01:42.210Z,21.00
2022-10-20T23:04:10.283Z,21.37
2022-10-20T23:06:38.608Z,20.87
2022-10-20T23:09:12.093Z,21.47
2022-10-20T23:11:40.021Z,20.97
2022-10-20T23:14:07.955Z,21.50
2022-10-20T23:16:35.817Z,21.60
2022-10-20T23:19:03.724Z,21.70
2022-10-20T23:21:31.467Z,20.27
2022-10-20T23:23:59.661Z,20.63
2022-10-20T23:26:28.865Z,22.00
2022-10-20T23:28:56.769Z,22.27
2022-10-20T23:31:24.962Z,23.73
2022-10-20T23:33:56.521Z,23.67
2022-10-20T23:36:24.638Z,24.13
2022-10-20T23:38:52.526Z,23.50
2022-10-20T23:41:21.124Z,22.50
2022-10-20T23:43:50.363Z,22.83
2022-10-20T23:46:18.843Z,23.40
2022-10-20T23:48:46.798Z,24.30
2022-10-20T23:51:14.819Z,23.70
2022-10-20T23:53:42.624Z,24.63
2022-10-20T23:56:10.465Z,23.70
2022-10-20T23:58:38.402Z,25.97
